sensor_id;sensor_type;location;lat;lon;timestamp;temperature;humidity
75931;DHT22;64609;47.052;15.462;2023-02-23T00:00:17;11.00;61.60
75931;DHT22;64609;47.052;15.462;2023-02-23T00:02:48;10.90;61.70
75931;DHT22;64609;47.052;15.462;2023-02-23T00:05:15;10.90;61.70
75931;DHT22;64609;47.052;15.462;2023-02-23T00:07:44;10.90;61.90
75931;DHT22;64609;47.052;15.462;2023-02-23T00:10:14;10.80;62.00
75931;DHT22;64609;47.052;15.462;2023-02-23T00:12:42;10.90;61.90
75931;DHT22;64609;47.052;15.462;2023-02-23T00:15:09;10.80;61.80
75931;DHT22;64609;47.052;15.462;2023-02-23T00:17:35;10.80;62.00
75931;DHT22;64609;47.052;15.462;2023-02-23T00:20:03;10.80;62.20
75931;DHT22;64609;47.052;15.462;2023-02-23T00:22:33;10.80;62.20
75931;DHT22;64609;47.052;15.462;2023-02-23T00:24:59;10.70;62.00
75931;DHT22;64609;47.052;15.462;2023-02-23T00:27:25;10.60;62.00
75931;DHT22;64609;47.052;15.462;2023-02-23T00:29:51;10.60;62.20
75931;DHT22;64609;47.052;15.462;2023-02-23T00:32:17;10.60;62.40
75931;DHT22;64609;47.052;15.462;2023-02-23T00:34:45;10.60;62.20
75931;DHT22;64609;47.052;15.462;2023-02-23T00:37:16;10.60;62.20
75931;DHT22;64609;47.052;15.462;2023-02-23T00:39:41;10.50;62.10
75931;DHT22;64609;47.052;15.462;2023-02-23T00:42:07;10.40;62.30
75931;DHT22;64609;47.052;15.462;2023-02-23T00:44:33;10.40;62.20
75931;DHT22;64609;47.052;15.462;2023-02-23T00:47:00;10.30;61.90
75931;DHT22;64609;47.052;15.462;2023-02-23T00:49:26;10.10;62.10
75931;DHT22;64609;47.052;15.462;2023-02-23T00:51:52;9.90;62.60
75931;DHT22;64609;47.052;15.462;2023-02-23T00:54:19;10.00;62.80
75931;DHT22;64609;47.052;15.462;2023-02-23T00:56:45;10.00;62.70
75931;DHT22;64609;47.052;15.462;2023-02-23T00:59:12;10.00;62.70
75931;DHT22;64609;47.052;15.462;2023-02-23T01:01:38;10.00;62.40
75931;DHT22;64609;47.052;15.462;2023-02-23T01:04:06;9.80;62.30
75931;DHT22;64609;47.052;15.462;2023-02-23T01:06:33;9.70;62.80
75931;DHT22;64609;47.052;15.462;2023-02-23T01:08:59;9.80;62.90
75931;DHT22;64609;47.052;15.462;2023-02-23T01:11:29;9.80;63.00
75931;DHT22;64609;47.052;15.462;2023-02-23T01:13:58;9.80;62.60
75931;DHT22;64609;47.052;15.462;2023-02-23T01:16:30;9.70;62.40
75931;DHT22;64609;47.052;15.462;2023-02-23T01:19:01;9.50;62.50
75931;DHT22;64609;47.052;15.462;2023-02-23T01:21:33;9.50;62.70
75931;DHT22;64609;47.052;15.462;2023-02-23T01:24:00;9.50;62.90
75931;DHT22;64609;47.052;15.462;2023-02-23T01:26:33;9.50;62.70
75931;DHT22;64609;47.052;15.462;2023-02-23T01:29:08;9.50;62.70
75931;DHT22;64609;47.052;15.462;2023-02-23T01:31:35;9.50;62.80
75931;DHT22;64609;47.052;15.462;2023-02-23T01:34:02;9.40;62.40
75931;DHT22;64609;47.052;15.462;2023-02-23T01:36:30;9.40;62.70
75931;DHT22;64609;47.052;15.462;2023-02-23T01:38:57;9.40;62.80
75931;DHT22;64609;47.052;15.462;2023-02-23T01:41:27;9.40;62.70
75931;DHT22;64609;47.052;15.462;2023-02-23T01:46:34;9.40;62.70
75931;DHT22;64609;47.052;15.462;2023-02-23T01:49:00;9.30;62.80
75931;DHT22;64609;47.052;15.462;2023-02-23T01:51:32;9.30;62.90
75931;DHT22;64609;47.052;15.462;2023-02-23T01:54:23;9.30;63.20
75931;DHT22;64609;47.052;15.462;2023-02-23T01:56:53;9.30;63.30
75931;DHT22;64609;47.052;15.462;2023-02-23T01:59:38;9.20;63.20
75931;DHT22;64609;47.052;15.462;2023-02-23T02:02:04;9.20;63.00
75931;DHT22;64609;47.052;15.462;2023-02-23T02:04:32;9.10;63.20
75931;DHT22;64609;47.052;15.462;2023-02-23T02:07:09;9.10;63.30
75931;DHT22;64609;47.052;15.462;2023-02-23T02:09:35;9.10;63.30
75931;DHT22;64609;47.052;15.462;2023-02-23T02:12:03;9.10;63.40
75931;DHT22;64609;47.052;15.462;2023-02-23T02:14:32;9.00;63.60
75931;DHT22;64609;47.052;15.462;2023-02-23T02:20:12;9.10;63.70
75931;DHT22;64609;47.052;15.462;2023-02-23T02:23:28;9.00;63.60
75931;DHT22;64609;47.052;15.462;2023-02-23T02:45:34;8.90;64.00
75931;DHT22;64609;47.052;15.462;2023-02-23T02:48:27;8.90;64.20
75931;DHT22;64609;47.052;15.462;2023-02-23T02:51:04;8.90;64.00
75931;DHT22;64609;47.052;15.462;2023-02-23T02:53:44;8.90;64.00
75931;DHT22;64609;47.052;15.462;2023-02-23T02:56:14;8.90;64.10
75931;DHT22;64609;47.052;15.462;2023-02-23T02:58:44;8.90;64.10
75931;DHT22;64609;47.052;15.462;2023-02-23T03:01:14;8.80;64.10
75931;DHT22;64609;47.052;15.462;2023-02-23T03:04:01;8.90;64.20
75931;DHT22;64609;47.052;15.462;2023-02-23T03:06:53;8.90;64.10
75931;DHT22;64609;47.052;15.462;2023-02-23T03:09:52;8.90;64.00
75931;DHT22;64609;47.052;15.462;2023-02-23T03:15:40;8.80;64.40
75931;DHT22;64609;47.052;15.462;2023-02-23T03:21:55;8.90;64.60
75931;DHT22;64609;47.052;15.462;2023-02-23T03:24:51;8.80;64.80
75931;DHT22;64609;47.052;15.462;2023-02-23T03:27:42;8.90;65.00
75931;DHT22;64609;47.052;15.462;2023-02-23T03:33:54;8.80;65.10
75931;DHT22;64609;47.052;15.462;2023-02-23T03:36:34;8.70;64.20
75931;DHT22;64609;47.052;15.462;2023-02-23T03:39:26;8.50;64.60
75931;DHT22;64609;47.052;15.462;2023-02-23T03:42:17;8.20;64.90
75931;DHT22;64609;47.052;15.462;2023-02-23T03:45:07;8.20;65.20
75931;DHT22;64609;47.052;15.462;2023-02-23T03:47:54;8.20;65.30
75931;DHT22;64609;47.052;15.462;2023-02-23T03:50:43;8.20;65.50
75931;DHT22;64609;47.052;15.462;2023-02-23T03:53:37;8.30;65.20
75931;DHT22;64609;47.052;15.462;2023-02-23T03:56:24;8.30;65.20
75931;DHT22;64609;47.052;15.462;2023-02-23T03:59:11;8.30;65.30
75931;DHT22;64609;47.052;15.462;2023-02-23T04:01:58;8.30;65.20
75931;DHT22;64609;47.052;15.462;2023-02-23T04:04:44;8.30;64.80
75931;DHT22;64609;47.052;15.462;2023-02-23T04:07:29;8.20;64.60
75931;DHT22;64609;47.052;15.462;2023-02-23T04:10:13;8.20;64.90
75931;DHT22;64609;47.052;15.462;2023-02-23T04:13:12;8.20;64.90
75931;DHT22;64609;47.052;15.462;2023-02-23T04:15:47;8.20;64.90
75931;DHT22;64609;47.052;15.462;2023-02-23T04:18:16;8.20;65.00
75931;DHT22;64609;47.052;15.462;2023-02-23T04:20:44;8.20;65.10
75931;DHT22;64609;47.052;15.462;2023-02-23T04:23:10;8.30;65.00
75931;DHT22;64609;47.052;15.462;2023-02-23T04:25:36;8.20;64.90
75931;DHT22;64609;47.052;15.462;2023-02-23T04:28:01;8.30;64.90
75931;DHT22;64609;47.052;15.462;2023-02-23T04:30:28;8.20;64.50
75931;DHT22;64609;47.052;15.462;2023-02-23T04:32:54;8.20;64.60
75931;DHT22;64609;47.052;15.462;2023-02-23T04:35:20;8.10;64.80
75931;DHT22;64609;47.052;15.462;2023-02-23T04:37:46;8.20;65.10
75931;DHT22;64609;47.052;15.462;2023-02-23T04:40:12;8.20;65.40
75931;DHT22;64609;47.052;15.462;2023-02-23T04:42:39;8.20;65.30
75931;DHT22;64609;47.052;15.462;2023-02-23T04:45:05;8.30;65.60
75931;DHT22;64609;47.052;15.462;2023-02-23T04:47:31;8.30;65.60
75931;DHT22;64609;47.052;15.462;2023-02-23T04:49:57;8.30;65.70
75931;DHT22;64609;47.052;15.462;2023-02-23T04:52:22;8.30;65.80
75931;DHT22;64609;47.052;15.462;2023-02-23T04:54:48;8.30;65.90
75931;DHT22;64609;47.052;15.462;2023-02-23T04:57:14;8.30;65.90
75931;DHT22;64609;47.052;15.462;2023-02-23T04:59:39;8.30;66.80
75931;DHT22;64609;47.052;15.462;2023-02-23T05:02:05;8.20;65.60
75931;DHT22;64609;47.052;15.462;2023-02-23T05:04:31;8.10;65.30
75931;DHT22;64609;47.052;15.462;2023-02-23T05:07:00;8.10;65.50
75931;DHT22;64609;47.052;15.462;2023-02-23T05:09:25;8.00;65.70
75931;DHT22;64609;47.052;15.462;2023-02-23T05:11:51;8.00;65.90
75931;DHT22;64609;47.052;15.462;2023-02-23T05:14:17;8.10;65.70
75931;DHT22;64609;47.052;15.462;2023-02-23T05:16:42;8.00;65.40
75931;DHT22;64609;47.052;15.462;2023-02-23T05:19:08;7.90;65.50
75931;DHT22;64609;47.052;15.462;2023-02-23T05:21:34;7.90;65.60
75931;DHT22;64609;47.052;15.462;2023-02-23T05:23:59;7.90;65.90
75931;DHT22;64609;47.052;15.462;2023-02-23T05:26:25;8.00;65.70
75931;DHT22;64609;47.052;15.462;2023-02-23T05:28:51;8.00;65.70
75931;DHT22;64609;47.052;15.462;2023-02-23T05:31:17;8.00;65.70
75931;DHT22;64609;47.052;15.462;2023-02-23T05:33:42;8.00;65.70
75931;DHT22;64609;47.052;15.462;2023-02-23T05:36:11;8.00;65.70
75931;DHT22;64609;47.052;15.462;2023-02-23T05:38:38;8.10;65.70
75931;DHT22;64609;47.052;15.462;2023-02-23T05:41:10;8.00;65.60
75931;DHT22;64609;47.052;15.462;2023-02-23T05:43:36;8.00;65.40
75931;DHT22;64609;47.052;15.462;2023-02-23T05:46:09;7.90;65.30
75931;DHT22;64609;47.052;15.462;2023-02-23T05:48:35;7.90;65.50
75931;DHT22;64609;47.052;15.462;2023-02-23T05:51:09;7.90;65.90
75931;DHT22;64609;47.052;15.462;2023-02-23T05:53:35;7.90;65.80
75931;DHT22;64609;47.052;15.462;2023-02-23T05:56:02;7.90;65.80
75931;DHT22;64609;47.052;15.462;2023-02-23T05:58:28;8.00;66.10
75931;DHT22;64609;47.052;15.462;2023-02-23T06:00:55;8.00;65.90
75931;DHT22;64609;47.052;15.462;2023-02-23T06:03:20;8.00;65.70
75931;DHT22;64609;47.052;15.462;2023-02-23T06:05:54;8.10;66.00
75931;DHT22;64609;47.052;15.462;2023-02-23T06:08:20;8.10;66.00
75931;DHT22;64609;47.052;15.462;2023-02-23T06:10:46;8.10;66.30
75931;DHT22;64609;47.052;15.462;2023-02-23T06:13:13;8.20;66.60
75931;DHT22;64609;47.052;15.462;2023-02-23T06:15:39;8.30;67.40
75931;DHT22;64609;47.052;15.462;2023-02-23T06:18:06;8.40;67.50
75931;DHT22;64609;47.052;15.462;2023-02-23T06:20:33;8.50;67.50
75931;DHT22;64609;47.052;15.462;2023-02-23T06:22:59;8.50;67.40
75931;DHT22;64609;47.052;15.462;2023-02-23T06:25:24;8.60;67.30
75931;DHT22;64609;47.052;15.462;2023-02-23T06:27:50;8.60;67.20
75931;DHT22;64609;47.052;15.462;2023-02-23T06:30:16;8.60;67.60
75931;DHT22;64609;47.052;15.462;2023-02-23T06:32:41;8.70;67.50
75931;DHT22;64609;47.052;15.462;2023-02-23T06:35:07;8.70;67.30
75931;DHT22;64609;47.052;15.462;2023-02-23T06:37:34;8.70;67.30
75931;DHT22;64609;47.052;15.462;2023-02-23T06:40:01;8.70;67.30
75931;DHT22;64609;47.052;15.462;2023-02-23T06:42:27;8.70;67.00
75931;DHT22;64609;47.052;15.462;2023-02-23T06:44:52;8.60;67.00
75931;DHT22;64609;47.052;15.462;2023-02-23T06:47:18;8.50;67.10
75931;DHT22;64609;47.052;15.462;2023-02-23T06:49:44;8.40;67.20
75931;DHT22;64609;47.052;15.462;2023-02-23T06:52:10;8.50;67.10
75931;DHT22;64609;47.052;15.462;2023-02-23T06:54:38;8.50;66.80
75931;DHT22;64609;47.052;15.462;2023-02-23T06:57:05;8.50;66.90
75931;DHT22;64609;47.052;15.462;2023-02-23T06:59:31;8.60;66.80
75931;DHT22;64609;47.052;15.462;2023-02-23T07:01:56;8.60;66.50
75931;DHT22;64609;47.052;15.462;2023-02-23T07:04:22;8.80;66.40
75931;DHT22;64609;47.052;15.462;2023-02-23T07:06:48;8.70;65.90
75931;DHT22;64609;47.052;15.462;2023-02-23T07:09:14;8.70;65.90
75931;DHT22;64609;47.052;15.462;2023-02-23T07:11:42;8.70;66.00
75931;DHT22;64609;47.052;15.462;2023-02-23T07:14:11;8.80;65.70
75931;DHT22;64609;47.052;15.462;2023-02-23T07:16:37;8.90;65.40
75931;DHT22;64609;47.052;15.462;2023-02-23T07:19:04;8.80;65.50
75931;DHT22;64609;47.052;15.462;2023-02-23T07:21:31;8.80;65.70
75931;DHT22;64609;47.052;15.462;2023-02-23T07:23:57;8.80;65.90
75931;DHT22;64609;47.052;15.462;2023-02-23T07:26:23;8.80;65.70
75931;DHT22;64609;47.052;15.462;2023-02-23T07:28:49;8.90;65.60
75931;DHT22;64609;47.052;15.462;2023-02-23T07:31:15;8.90;65.30
75931;DHT22;64609;47.052;15.462;2023-02-23T07:33:41;8.80;65.50
75931;DHT22;64609;47.052;15.462;2023-02-23T07:36:07;8.80;65.70
75931;DHT22;64609;47.052;15.462;2023-02-23T07:38:32;8.80;65.70
75931;DHT22;64609;47.052;15.462;2023-02-23T07:40:58;8.90;66.00
75931;DHT22;64609;47.052;15.462;2023-02-23T07:43:24;9.10;66.30
75931;DHT22;64609;47.052;15.462;2023-02-23T07:45:50;9.20;66.30
75931;DHT22;64609;47.052;15.462;2023-02-23T07:48:16;9.40;66.40
75931;DHT22;64609;47.052;15.462;2023-02-23T07:50:42;9.60;66.10
75931;DHT22;64609;47.052;15.462;2023-02-23T07:53:08;9.70;65.70
75931;DHT22;64609;47.052;15.462;2023-02-23T07:55:34;9.80;65.70
75931;DHT22;64609;47.052;15.462;2023-02-23T07:58:03;9.90;65.60
75931;DHT22;64609;47.052;15.462;2023-02-23T08:00:29;10.00;65.40
75931;DHT22;64609;47.052;15.462;2023-02-23T08:02:54;10.10;65.10
75931;DHT22;64609;47.052;15.462;2023-02-23T08:05:20;10.20;64.80
75931;DHT22;64609;47.052;15.462;2023-02-23T08:07:46;10.40;64.90
75931;DHT22;64609;47.052;15.462;2023-02-23T08:10:12;10.40;65.00
75931;DHT22;64609;47.052;15.462;2023-02-23T08:12:37;10.50;64.70
75931;DHT22;64609;47.052;15.462;2023-02-23T08:15:06;10.60;64.40
75931;DHT22;64609;47.052;15.462;2023-02-23T08:17:36;10.70;64.60
75931;DHT22;64609;47.052;15.462;2023-02-23T08:20:03;10.90;64.50
75931;DHT22;64609;47.052;15.462;2023-02-23T08:22:28;10.90;64.10
75931;DHT22;64609;47.052;15.462;2023-02-23T08:24:54;11.10;63.90
75931;DHT22;64609;47.052;15.462;2023-02-23T08:27:20;11.20;63.90
75931;DHT22;64609;47.052;15.462;2023-02-23T08:29:46;11.30;63.80
75931;DHT22;64609;47.052;15.462;2023-02-23T08:32:11;11.40;63.60
75931;DHT22;64609;47.052;15.462;2023-02-23T08:34:41;11.50;63.40
75931;DHT22;64609;47.052;15.462;2023-02-23T08:37:07;11.70;63.40
75931;DHT22;64609;47.052;15.462;2023-02-23T08:39:33;11.80;63.20
75931;DHT22;64609;47.052;15.462;2023-02-23T08:41:59;11.90;63.20
75931;DHT22;64609;47.052;15.462;2023-02-23T08:44:24;12.10;63.00
75931;DHT22;64609;47.052;15.462;2023-02-23T08:46:50;12.30;62.80
75931;DHT22;64609;47.052;15.462;2023-02-23T08:49:18;12.40;62.50
75931;DHT22;64609;47.052;15.462;2023-02-23T08:51:43;12.50;62.40
75931;DHT22;64609;47.052;15.462;2023-02-23T08:54:11;12.60;62.20
75931;DHT22;64609;47.052;15.462;2023-02-23T08:56:39;12.60;61.90
75931;DHT22;64609;47.052;15.462;2023-02-23T08:59:05;12.80;61.80
75931;DHT22;64609;47.052;15.462;2023-02-23T09:01:31;12.90;61.50
75931;DHT22;64609;47.052;15.462;2023-02-23T09:03:57;12.90;61.10
75931;DHT22;64609;47.052;15.462;2023-02-23T09:06:24;13.10;61.00
75931;DHT22;64609;47.052;15.462;2023-02-23T09:08:51;13.10;60.70
75931;DHT22;64609;47.052;15.462;2023-02-23T09:11:18;13.10;60.50
75931;DHT22;64609;47.052;15.462;2023-02-23T09:13:43;13.20;60.20
75931;DHT22;64609;47.052;15.462;2023-02-23T09:16:09;13.10;59.40
75931;DHT22;64609;47.052;15.462;2023-02-23T09:18:35;13.00;59.20
75931;DHT22;64609;47.052;15.462;2023-02-23T09:21:05;13.10;59.30
75931;DHT22;64609;47.052;15.462;2023-02-23T09:23:33;13.10;59.20
75931;DHT22;64609;47.052;15.462;2023-02-23T09:26:06;13.10;59.10
75931;DHT22;64609;47.052;15.462;2023-02-23T09:28:33;13.10;59.30
75931;DHT22;64609;47.052;15.462;2023-02-23T09:31:10;13.20;59.50
75931;DHT22;64609;47.052;15.462;2023-02-23T09:33:36;13.20;59.20
75931;DHT22;64609;47.052;15.462;2023-02-23T09:36:08;13.20;58.70
75931;DHT22;64609;47.052;15.462;2023-02-23T09:38:33;13.20;58.90
75931;DHT22;64609;47.052;15.462;2023-02-23T09:40:59;13.20;58.90
75931;DHT22;64609;47.052;15.462;2023-02-23T09:43:41;13.20;59.00
75931;DHT22;64609;47.052;15.462;2023-02-23T09:48:56;13.20;58.60
75931;DHT22;64609;47.052;15.462;2023-02-23T09:51:23;13.20;58.60
75931;DHT22;64609;47.052;15.462;2023-02-23T09:53:55;13.20;58.90
75931;DHT22;64609;47.052;15.462;2023-02-23T09:56:44;13.10;58.90
75931;DHT22;64609;47.052;15.462;2023-02-23T09:59:14;13.10;58.90
75931;DHT22;64609;47.052;15.462;2023-02-23T10:04:44;12.90;59.50
75931;DHT22;64609;47.052;15.462;2023-02-23T10:10:45;13.00;59.40
75931;DHT22;64609;47.052;15.462;2023-02-23T10:13:20;13.00;59.60
75931;DHT22;64609;47.052;15.462;2023-02-23T10:21:33;12.80;59.60
75931;DHT22;64609;47.052;15.462;2023-02-23T10:24:10;13.00;59.90
75931;DHT22;64609;47.052;15.462;2023-02-23T10:26:44;13.10;59.70
75931;DHT22;64609;47.052;15.462;2023-02-23T10:32:44;13.20;59.20
75931;DHT22;64609;47.052;15.462;2023-02-23T10:35:16;13.20;59.30
75931;DHT22;64609;47.052;15.462;2023-02-23T10:37:46;13.20;59.00
75931;DHT22;64609;47.052;15.462;2023-02-23T10:40:21;13.30;59.10
75931;DHT22;64609;47.052;15.462;2023-02-23T10:42:48;13.40;59.20
75931;DHT22;64609;47.052;15.462;2023-02-23T10:45:16;13.60;58.90
75931;DHT22;64609;47.052;15.462;2023-02-23T10:47:51;13.70;58.90
75931;DHT22;64609;47.052;15.462;2023-02-23T10:50:18;13.80;58.40
75931;DHT22;64609;47.052;15.462;2023-02-23T10:52:48;13.90;58.20
75931;DHT22;64609;47.052;15.462;2023-02-23T10:55:24;14.00;58.20
75931;DHT22;64609;47.052;15.462;2023-02-23T10:58:05;14.10;58.00
75931;DHT22;64609;47.052;15.462;2023-02-23T11:00:34;14.10;57.60
75931;DHT22;64609;47.052;15.462;2023-02-23T11:03:02;14.10;57.70
75931;DHT22;64609;47.052;15.462;2023-02-23T11:05:46;14.20;57.60
75931;DHT22;64609;47.052;15.462;2023-02-23T11:08:29;14.40;57.60
75931;DHT22;64609;47.052;15.462;2023-02-23T11:13:38;14.50;57.40
75931;DHT22;64609;47.052;15.462;2023-02-23T11:16:10;14.60;57.00
75931;DHT22;64609;47.052;15.462;2023-02-23T11:18:39;14.60;57.30
75931;DHT22;64609;47.052;15.462;2023-02-23T11:21:10;14.70;57.50
75931;DHT22;64609;47.052;15.462;2023-02-23T11:23:39;14.80;57.30
75931;DHT22;64609;47.052;15.462;2023-02-23T11:26:23;14.90;57.10
75931;DHT22;64609;47.052;15.462;2023-02-23T11:28:56;15.00;57.10
75931;DHT22;64609;47.052;15.462;2023-02-23T11:31:30;15.10;57.00
75931;DHT22;64609;47.052;15.462;2023-02-23T11:33:57;15.10;56.40
75931;DHT22;64609;47.052;15.462;2023-02-23T11:41:41;15.40;56.10
75931;DHT22;64609;47.052;15.462;2023-02-23T11:44:21;15.50;55.90
75931;DHT22;64609;47.052;15.462;2023-02-23T11:46:47;15.60;55.90
75931;DHT22;64609;47.052;15.462;2023-02-23T11:49:20;15.50;55.90
75931;DHT22;64609;47.052;15.462;2023-02-23T11:51:50;15.60;55.70
75931;DHT22;64609;47.052;15.462;2023-02-23T11:54:22;15.60;55.60
75931;DHT22;64609;47.052;15.462;2023-02-23T11:56:50;15.70;55.50
75931;DHT22;64609;47.052;15.462;2023-02-23T11:59:18;15.80;55.50
75931;DHT22;64609;47.052;15.462;2023-02-23T12:01:50;15.80;55.20
75931;DHT22;64609;47.052;15.462;2023-02-23T12:04:29;15.80;55.10
75931;DHT22;64609;47.052;15.462;2023-02-23T12:07:36;15.90;55.00
75931;DHT22;64609;47.052;15.462;2023-02-23T12:20:50;15.80;55.10
75931;DHT22;64609;47.052;15.462;2023-02-23T12:23:22;15.80;55.10
75931;DHT22;64609;47.052;15.462;2023-02-23T12:25:59;15.70;56.10
75931;DHT22;64609;47.052;15.462;2023-02-23T12:28:44;15.70;55.20
75931;DHT22;64609;47.052;15.462;2023-02-23T12:31:26;15.80;55.40
75931;DHT22;64609;47.052;15.462;2023-02-23T12:34:00;15.80;55.30
75931;DHT22;64609;47.052;15.462;2023-02-23T12:36:38;15.70;55.60
75931;DHT22;64609;47.052;15.462;2023-02-23T12:39:21;15.70;55.30
75931;DHT22;64609;47.052;15.462;2023-02-23T12:44:48;15.70;55.50
75931;DHT22;64609;47.052;15.462;2023-02-23T12:53:28;15.60;55.50
75931;DHT22;64609;47.052;15.462;2023-02-23T13:01:38;15.50;55.80
75931;DHT22;64609;47.052;15.462;2023-02-23T13:06:56;15.50;55.80
75931;DHT22;64609;47.052;15.462;2023-02-23T13:14:54;15.50;56.20
75931;DHT22;64609;47.052;15.462;2023-02-23T13:27:51;15.50;56.30
75931;DHT22;64609;47.052;15.462;2023-02-23T13:30:19;15.40;56.20
75931;DHT22;64609;47.052;15.462;2023-02-23T13:32:46;15.50;56.30
75931;DHT22;64609;47.052;15.462;2023-02-23T13:35:17;15.50;56.60
75931;DHT22;64609;47.052;15.462;2023-02-23T13:37:52;15.40;56.50
75931;DHT22;64609;47.052;15.462;2023-02-23T13:40:34;15.40;56.50
75931;DHT22;64609;47.052;15.462;2023-02-23T13:52:13;15.40;56.60
75931;DHT22;64609;47.052;15.462;2023-02-23T13:54:52;15.40;56.70
75931;DHT22;64609;47.052;15.462;2023-02-23T13:57:21;15.40;56.80
75931;DHT22;64609;47.052;15.462;2023-02-23T13:59:47;15.40;56.90
75931;DHT22;64609;47.052;15.462;2023-02-23T14:02:19;15.40;56.90
75931;DHT22;64609;47.052;15.462;2023-02-23T14:04:48;15.40;56.80
75931;DHT22;64609;47.052;15.462;2023-02-23T14:07:24;15.40;56.80
75931;DHT22;64609;47.052;15.462;2023-02-23T14:09:53;15.40;56.80
75931;DHT22;64609;47.052;15.462;2023-02-23T14:12:39;15.40;56.60
75931;DHT22;64609;47.052;15.462;2023-02-23T14:18:00;15.40;56.60
75931;DHT22;64609;47.052;15.462;2023-02-23T14:20:42;15.40;56.60
75931;DHT22;64609;47.052;15.462;2023-02-23T14:23:16;15.40;56.60
75931;DHT22;64609;47.052;15.462;2023-02-23T14:28:46;15.40;56.40
75931;DHT22;64609;47.052;15.462;2023-02-23T14:41:33;15.30;56.00
75931;DHT22;64609;47.052;15.462;2023-02-23T14:44:35;15.20;56.30
75931;DHT22;64609;47.052;15.462;2023-02-23T14:47:17;15.10;56.70
75931;DHT22;64609;47.052;15.462;2023-02-23T14:49:47;15.10;56.80
75931;DHT22;64609;47.052;15.462;2023-02-23T14:52:23;15.10;56.80
75931;DHT22;64609;47.052;15.462;2023-02-23T14:54:51;15.10;56.80
75931;DHT22;64609;47.052;15.462;2023-02-23T14:57:22;15.10;56.80
75931;DHT22;64609;47.052;15.462;2023-02-23T15:02:24;15.10;56.90
75931;DHT22;64609;47.052;15.462;2023-02-23T15:04:50;15.20;56.80
75931;DHT22;64609;47.052;15.462;2023-02-23T15:07:31;15.10;56.70
75931;DHT22;64609;47.052;15.462;2023-02-23T15:10:00;15.10;56.60
75931;DHT22;64609;47.052;15.462;2023-02-23T15:12:29;15.10;56.80
75931;DHT22;64609;47.052;15.462;2023-02-23T15:15:00;15.10;57.00
75931;DHT22;64609;47.052;15.462;2023-02-23T15:17:27;15.10;56.80
75931;DHT22;64609;47.052;15.462;2023-02-23T15:20:06;15.10;56.90
75931;DHT22;64609;47.052;15.462;2023-02-23T15:22:37;15.10;56.80
75931;DHT22;64609;47.052;15.462;2023-02-23T15:25:21;15.10;56.90
75931;DHT22;64609;47.052;15.462;2023-02-23T15:27:48;15.10;56.50
75931;DHT22;64609;47.052;15.462;2023-02-23T15:30:28;15.10;56.60
75931;DHT22;64609;47.052;15.462;2023-02-23T15:33:04;15.10;56.60
75931;DHT22;64609;47.052;15.462;2023-02-23T15:35:34;15.10;56.40
75931;DHT22;64609;47.052;15.462;2023-02-23T15:38:05;15.10;56.20
75931;DHT22;64609;47.052;15.462;2023-02-23T15:40:32;15.10;56.20
75931;DHT22;64609;47.052;15.462;2023-02-23T15:42:58;15.10;56.50
75931;DHT22;64609;47.052;15.462;2023-02-23T15:45:41;15.00;56.50
75931;DHT22;64609;47.052;15.462;2023-02-23T15:48:17;15.00;56.40
75931;DHT22;64609;47.052;15.462;2023-02-23T15:50:49;15.00;56.70
75931;DHT22;64609;47.052;15.462;2023-02-23T15:53:31;14.90;56.70
75931;DHT22;64609;47.052;15.462;2023-02-23T15:56:13;14.90;57.00
75931;DHT22;64609;47.052;15.462;2023-02-23T15:58:46;14.90;57.20
75931;DHT22;64609;47.052;15.462;2023-02-23T16:01:21;14.90;57.40
75931;DHT22;64609;47.052;15.462;2023-02-23T16:04:06;15.00;57.50
75931;DHT22;64609;47.052;15.462;2023-02-23T16:06:38;15.00;57.10
75931;DHT22;64609;47.052;15.462;2023-02-23T16:12:03;15.00;57.10
75931;DHT22;64609;47.052;15.462;2023-02-23T16:14:45;14.90;56.90
75931;DHT22;64609;47.052;15.462;2023-02-23T16:17:24;14.90;57.10
75931;DHT22;64609;47.052;15.462;2023-02-23T16:20:04;14.80;57.70
75931;DHT22;64609;47.052;15.462;2023-02-23T16:22:32;14.80;57.90
75931;DHT22;64609;47.052;15.462;2023-02-23T16:25:03;14.80;58.10
75931;DHT22;64609;47.052;15.462;2023-02-23T16:27:31;14.70;58.30
75931;DHT22;64609;47.052;15.462;2023-02-23T16:30:03;14.70;58.40
75931;DHT22;64609;47.052;15.462;2023-02-23T16:32:36;14.60;58.30
75931;DHT22;64609;47.052;15.462;2023-02-23T16:35:16;14.60;58.40
75931;DHT22;64609;47.052;15.462;2023-02-23T16:37:57;14.60;58.50
75931;DHT22;64609;47.052;15.462;2023-02-23T16:40:25;14.60;58.70
75931;DHT22;64609;47.052;15.462;2023-02-23T16:42:51;14.50;58.80
75931;DHT22;64609;47.052;15.462;2023-02-23T16:45:17;14.40;59.00
75931;DHT22;64609;47.052;15.462;2023-02-23T16:47:44;14.40;59.30
75931;DHT22;64609;47.052;15.462;2023-02-23T16:50:16;14.40;59.40
75931;DHT22;64609;47.052;15.462;2023-02-23T16:52:43;14.30;59.50
75931;DHT22;64609;47.052;15.462;2023-02-23T16:55:13;14.30;59.70
75931;DHT22;64609;47.052;15.462;2023-02-23T16:57:45;14.20;59.80
75931;DHT22;64609;47.052;15.462;2023-02-23T17:00:20;14.10;59.80
75931;DHT22;64609;47.052;15.462;2023-02-23T17:02:47;14.00;60.00
75931;DHT22;64609;47.052;15.462;2023-02-23T17:05:15;13.90;60.00
75931;DHT22;64609;47.052;15.462;2023-02-23T17:07:44;13.90;60.20
75931;DHT22;64609;47.052;15.462;2023-02-23T17:10:16;13.80;60.10
75931;DHT22;64609;47.052;15.462;2023-02-23T17:12:50;13.70;60.30
75931;DHT22;64609;47.052;15.462;2023-02-23T17:15:16;13.70;60.50
75931;DHT22;64609;47.052;15.462;2023-02-23T17:17:43;13.60;60.50
75931;DHT22;64609;47.052;15.462;2023-02-23T17:20:09;13.60;60.60
75931;DHT22;64609;47.052;15.462;2023-02-23T17:22:42;13.50;60.60
75931;DHT22;64609;47.052;15.462;2023-02-23T17:25:08;13.40;60.70
75931;DHT22;64609;47.052;15.462;2023-02-23T17:27:34;13.30;60.90
75931;DHT22;64609;47.052;15.462;2023-02-23T17:29:59;13.40;61.00
75931;DHT22;64609;47.052;15.462;2023-02-23T17:32:25;13.30;61.20
75931;DHT22;64609;47.052;15.462;2023-02-23T17:34:51;13.30;61.10
75931;DHT22;64609;47.052;15.462;2023-02-23T17:37:17;13.30;61.20
75931;DHT22;64609;47.052;15.462;2023-02-23T17:39:46;13.20;61.30
75931;DHT22;64609;47.052;15.462;2023-02-23T17:42:16;13.20;61.50
75931;DHT22;64609;47.052;15.462;2023-02-23T17:44:42;13.10;61.60
75931;DHT22;64609;47.052;15.462;2023-02-23T17:47:08;13.10;62.20
75931;DHT22;64609;47.052;15.462;2023-02-23T17:49:34;13.10;61.60
75931;DHT22;64609;47.052;15.462;2023-02-23T17:51:59;13.10;61.70
75931;DHT22;64609;47.052;15.462;2023-02-23T17:54:28;13.00;61.60
75931;DHT22;64609;47.052;15.462;2023-02-23T17:56:54;13.00;61.70
75931;DHT22;64609;47.052;15.462;2023-02-23T17:59:20;12.90;61.80
75931;DHT22;64609;47.052;15.462;2023-02-23T18:01:46;12.80;61.80